Decoded Metar for OIBS (SIRI ISLAND in IRAN) (IATA:N/A) | Meteo·Mobile Aviation Weather
aviador You're here:

OIBS Decoded Metar

SIRI ISLAND in IRAN
Report Time2018-09-22 03:00:00
UTC Time2018-09-22 03:13:12
Flight Rules ifr IFR
Wind060° at 04 kt
W.Decomp.*RWY 12: 1.9 kt HW 3.5 kt LCW
W.Rank060° ranks 3
Current wind is below 060° avg. (11.3)
Visibility2000 m
Phenomena:Mist
Clouds:N/A
Expected CloudBase > 1,600 ft AGL from Temp-Dew spread
CeilingNone
Temp33°C (ISA +18)
Dew Point29°C (80% RH)
Heat Index48.1°C
QNH1006 hPa
Density Alt2,861 ft
Elevation42 ft
Report Wrong Elevation
Raw Report
METAR OIBS 220300Z 06004KT 2000 BR NSC 33/29 Q1006=

Extra information for OIBS:More info

Metar Taf Metar & Taf Last 4 Metars F.Rules Stats Wind Profile Meteogram Temp Stats Airport Information Weather charts Add Link Nearby VenuesMetar ALERT Operation Metar Decoded Social comments